createdAt,value
2022-08-07T00:02:40.416Z,43.92
2022-08-07T00:05:01.223Z,45.06
2022-08-07T00:07:39.242Z,43.22
2022-08-07T00:10:26.482Z,43.10
2022-08-07T00:12:59.790Z,44.32
2022-08-07T00:15:38.606Z,43.04
2022-08-07T00:18:19.647Z,43.19
2022-08-07T00:20:49.470Z,43.02
2022-08-07T00:23:17.632Z,43.08
2022-08-07T00:25:45.766Z,43.06
2022-08-07T00:28:21.962Z,43.06
2022-08-07T00:30:49.836Z,42.84
2022-08-07T00:33:17.640Z,43.01
2022-08-07T00:35:49.665Z,43.32
2022-08-07T00:38:31.219Z,43.07
2022-08-07T00:40:59.594Z,43.09
2022-08-07T00:44:00.315Z,43.29
2022-08-07T00:46:16.711Z,43.64
2022-08-07T00:48:45.578Z,43.28
2022-08-07T00:51:18.073Z,43.39
2022-08-07T00:53:50.476Z,43.28
2022-08-07T00:56:23.362Z,43.41
2022-08-07T00:58:59.931Z,43.48
2022-08-07T01:01:57.029Z,43.55
2022-08-07T01:04:25.826Z,44.02
2022-08-07T01:06:58.065Z,43.94
2022-08-07T01:10:04.492Z,43.93
2022-08-07T01:12:28.708Z,44.07
2022-08-07T01:15:03.964Z,44.39
2022-08-07T01:17:34.077Z,44.69
2022-08-07T01:20:06.546Z,44.83
2022-08-07T01:22:37.611Z,44.77
2022-08-07T01:25:54.302Z,45.81
2022-08-07T01:28:03.898Z,44.93
2022-08-07T01:30:33.395Z,45.18
2022-08-07T01:33:02.284Z,44.88
2022-08-07T01:35:53.747Z,44.95
2022-08-07T01:38:24.926Z,44.81
2022-08-07T01:40:55.316Z,44.86
2022-08-07T01:43:25.883Z,45.25
2022-08-07T01:45:55.090Z,45.31
2022-08-07T01:48:30.336Z,45.05
2022-08-07T01:52:00.932Z,46.66
2022-08-07T01:54:12.659Z,45.93
2022-08-07T01:56:52.843Z,45.44
2022-08-07T01:59:31.101Z,45.49
2022-08-07T02:02:10.327Z,46.17
2022-08-07T02:04:52.519Z,46.09
2022-08-07T02:07:45.206Z,45.89
2022-08-07T02:10:18.500Z,46.48
2022-08-07T02:12:50.281Z,46.09
2022-08-07T02:15:22.608Z,46.30
2022-08-07T02:17:52.626Z,46.39
2022-08-07T02:20:24.465Z,46.33
2022-08-07T02:22:57.580Z,46.57
2022-08-07T02:26:10.589Z,46.38
2022-08-07T02:28:25.424Z,46.48
2022-08-07T02:30:56.049Z,46.82
2022-08-07T02:33:33.015Z,46.35
2022-08-07T02:36:29.913Z,46.53
2022-08-07T02:39:15.949Z,46.32
2022-08-07T02:41:54.264Z,46.59
2022-08-07T02:44:27.649Z,46.58
2022-08-07T02:47:06.255Z,47.10
2022-08-07T02:49:59.028Z,46.80
2022-08-07T02:52:32.051Z,46.83
2022-08-07T02:55:04.014Z,46.89
2022-08-07T02:57:35.971Z,47.00
2022-08-07T03:00:11.181Z,47.06
2022-08-07T03:02:54.268Z,46.88
2022-08-07T03:05:24.632Z,47.51
2022-08-07T03:08:07.700Z,47.30
2022-08-07T03:10:41.023Z,47.20
2022-08-07T03:13:19.595Z,48.37
2022-08-07T03:15:58.490Z,47.70
2022-08-07T03:18:35.048Z,47.26
2022-08-07T03:21:05.150Z,47.61
2022-08-07T03:24:17.850Z,47.71
2022-08-07T03:26:30.878Z,47.63
2022-08-07T03:29:02.415Z,47.73
2022-08-07T03:31:43.255Z,47.45
2022-08-07T03:34:18.453Z,47.52
2022-08-07T03:36:52.904Z,47.73
2022-08-07T03:39:45.777Z,47.28
2022-08-07T03:42:10.220Z,47.71
2022-08-07T03:44:40.004Z,47.70
2022-08-07T03:47:11.509Z,47.71
2022-08-07T03:49:52.058Z,47.80
2022-08-07T03:52:26.695Z,48.08
2022-08-07T03:54:57.343Z,47.72
2022-08-07T03:58:32.394Z,48.13
2022-08-07T04:00:29.180Z,47.68
2022-08-07T04:02:59.312Z,47.96
2022-08-07T04:05:39.213Z,48.21
2022-08-07T04:08:11.303Z,48.08
2022-08-07T04:10:39.459Z,48.63
2022-08-07T04:13:15.223Z,48.30
2022-08-07T04:15:45.848Z,48.30
2022-08-07T04:18:57.257Z,48.38
2022-08-07T04:21:07.201Z,48.29
2022-08-07T04:23:43.906Z,48.33
2022-08-07T04:26:23.607Z,48.24
2022-08-07T04:28:56.333Z,48.55
2022-08-07T04:32:02.967Z,48.54
2022-08-07T04:34:16.726Z,48.62
2022-08-07T04:36:45.212Z,48.71
2022-08-07T04:39:13.300Z,48.92
2022-08-07T04:41:50.464Z,48.58
2022-08-07T04:44:19.263Z,48.76
2022-08-07T04:47:03.974Z,48.79
2022-08-07T04:49:57.961Z,48.55
2022-08-07T04:52:51.046Z,48.57
2022-08-07T04:58:12.100Z,48.67
2022-08-07T04:58:43.131Z,48.21
2022-08-07T05:01:18.088Z,48.10
2022-08-07T05:04:06.994Z,47.87
2022-08-07T05:06:43.738Z,47.43
2022-08-07T05:09:27.987Z,47.57
2022-08-07T05:12:26.554Z,48.29
2022-08-07T05:15:21.530Z,47.18
2022-08-07T05:17:56.662Z,48.75
2022-08-07T05:20:32.113Z,46.81
2022-08-07T05:23:05.263Z,46.49
2022-08-07T05:26:13.869Z,46.85
2022-08-07T05:28:34.765Z,45.85
2022-08-07T05:31:03.657Z,45.63
2022-08-07T05:33:35.593Z,45.62
2022-08-07T05:36:12.311Z,44.56
2022-08-07T05:39:00.839Z,45.71
2022-08-07T05:42:02.207Z,43.49
2022-08-07T05:44:29.331Z,45.69
2022-08-07T05:47:00.256Z,44.61
2022-08-07T05:49:40.402Z,44.94
2022-08-07T05:52:11.704Z,42.68
2022-08-07T05:54:53.472Z,44.26
2022-08-07T05:57:26.708Z,44.35
2022-08-07T06:00:00.261Z,44.48
2022-08-07T06:02:34.044Z,46.98
2022-08-07T06:05:06.274Z,47.45
2022-08-07T06:08:13.499Z,46.50
2022-08-07T06:10:24.863Z,46.86
2022-08-07T06:12:52.675Z,46.72
2022-08-07T06:15:21.495Z,47.02
2022-08-07T06:17:53.458Z,47.80
2022-08-07T06:20:25.235Z,46.96
2022-08-07T06:23:24.813Z,47.67
2022-08-07T06:25:54.675Z,45.72
2022-08-07T06:28:27.371Z,47.33
2022-08-07T06:30:55.716Z,47.32
2022-08-07T06:33:25.383Z,47.04
2022-08-07T06:36:12.901Z,46.76
2022-08-07T06:38:51.225Z,47.78
2022-08-07T06:41:58.753Z,46.44
2022-08-07T06:44:14.119Z,47.16
2022-08-07T06:46:44.211Z,47.20
2022-08-07T06:49:21.809Z,46.60
2022-08-07T06:51:50.419Z,47.47
2022-08-07T06:55:32.641Z,46.91
2022-08-07T06:57:10.155Z,47.69
2022-08-07T07:00:14.775Z,47.46
2022-08-07T07:02:54.529Z,47.23
2022-08-07T07:06:05.453Z,46.81
2022-08-07T07:08:06.920Z,46.82
2022-08-07T07:10:39.525Z,45.97
2022-08-07T07:13:41.611Z,46.86
2022-08-07T07:16:21.449Z,46.44
2022-08-07T07:18:54.162Z,46.66
2022-08-07T07:21:26.973Z,46.27
2022-08-07T07:24:12.518Z,46.59
2022-08-07T07:26:49.737Z,45.82
2022-08-07T07:29:56.879Z,46.72
2022-08-07T07:32:14.606Z,45.48
2022-08-07T07:34:46.413Z,45.23
2022-08-07T07:37:45.148Z,46.41
2022-08-07T07:40:10.423Z,44.74
2022-08-07T07:42:51.106Z,44.75
2022-08-07T07:46:38.539Z,44.98
2022-08-07T07:48:34.828Z,46.69
2022-08-07T07:51:07.732Z,45.60
2022-08-07T07:53:51.437Z,44.00
2022-08-07T07:56:30.491Z,44.15
2022-08-07T07:59:02.628Z,45.09
2022-08-07T08:02:01.610Z,43.57
2022-08-07T08:04:25.786Z,43.33
2022-08-07T08:06:56.198Z,43.00
2022-08-07T08:09:29.201Z,42.17
2022-08-07T08:12:02.594Z,42.13
2022-08-07T08:14:34.404Z,43.89
2022-08-07T08:17:55.385Z,43.88
2022-08-07T08:20:16.020Z,40.36
2022-08-07T08:23:08.521Z,42.64
2022-08-07T08:26:02.177Z,41.56
2022-08-07T08:28:39.168Z,41.79
2022-08-07T08:31:22.850Z,40.31
2022-08-07T08:34:07.141Z,40.71
2022-08-07T08:36:37.464Z,40.91
2022-08-07T08:39:09.845Z,40.13
2022-08-07T08:41:58.220Z,39.45
2022-08-07T08:44:33.235Z,40.17
2022-08-07T08:47:10.050Z,39.94
2022-08-07T08:50:02.466Z,41.09
2022-08-07T08:52:40.909Z,39.15
2022-08-07T08:55:53.902Z,38.75
2022-08-07T08:58:24.931Z,38.64
2022-08-07T09:01:14.548Z,38.35
2022-08-07T09:03:55.474Z,36.79
2022-08-07T09:06:40.497Z,38.25
2022-08-07T09:09:29.852Z,37.38
2022-08-07T09:12:20.111Z,35.43
2022-08-07T09:16:22.440Z,36.36
2022-08-07T09:18:08.759Z,36.53
2022-08-07T09:20:58.572Z,37.55
2022-08-07T09:24:33.016Z,38.19
2022-08-07T09:26:34.505Z,38.18
2022-08-07T09:30:01.099Z,39.03
2022-08-07T09:32:17.192Z,37.12
2022-08-07T09:34:56.156Z,36.92
2022-08-07T09:37:48.283Z,36.47
2022-08-07T09:40:27.547Z,36.64
2022-08-07T09:43:08.929Z,37.38
2022-08-07T09:47:25.693Z,37.11
2022-08-07T09:48:56.222Z,37.75
2022-08-07T09:52:16.189Z,36.32
2022-08-07T09:54:42.185Z,35.18
2022-08-07T09:57:49.901Z,35.15
2022-08-07T10:00:29.902Z,35.77
2022-08-07T10:04:04.010Z,36.33
2022-08-07T10:06:38.167Z,36.08
2022-08-07T10:09:23.695Z,36.08
2022-08-07T10:12:21.773Z,36.88
2022-08-07T10:15:51.950Z,35.20
2022-08-07T10:18:47.169Z,35.71
2022-08-07T10:22:14.841Z,37.02
2022-08-07T10:25:01.449Z,35.19
2022-08-07T10:28:12.528Z,34.50
2022-08-07T10:30:59.270Z,35.23
2022-08-07T10:34:15.738Z,34.51
2022-08-07T10:37:03.928Z,33.68
2022-08-07T10:40:03.363Z,32.57
2022-08-07T10:42:37.827Z,34.31
2022-08-07T10:45:19.520Z,33.80
2022-08-07T10:48:17.524Z,33.11
2022-08-07T10:50:50.648Z,33.59
2022-08-07T10:53:44.222Z,33.06
2022-08-07T10:56:44.963Z,32.56
2022-08-07T10:59:30.326Z,34.82
2022-08-07T11:02:12.419Z,34.19
2022-08-07T11:05:10.505Z,33.45
2022-08-07T11:08:00.338Z,34.07
2022-08-07T11:10:38.843Z,34.85
2022-08-07T11:13:16.907Z,34.06
2022-08-07T11:16:07.401Z,34.24
2022-08-07T11:18:43.897Z,34.50
2022-08-07T11:21:28.727Z,34.78
2022-08-07T11:24:05.479Z,32.44
2022-08-07T11:26:48.290Z,34.69
2022-08-07T11:29:42.053Z,33.99
2022-08-07T11:32:25.482Z,32.76
2022-08-07T11:34:59.461Z,33.15
2022-08-07T11:38:10.419Z,31.32
2022-08-07T11:40:42.567Z,32.51
2022-08-07T11:43:41.576Z,31.61
2022-08-07T11:46:30.742Z,33.23
2022-08-07T11:49:50.885Z,31.01
2022-08-07T11:52:35.711Z,31.97
2022-08-07T11:55:18.965Z,32.74
2022-08-07T11:58:16.193Z,29.33
2022-08-07T12:01:00.238Z,30.36
2022-08-07T12:03:59.169Z,31.49
2022-08-07T12:06:39.808Z,31.94
2022-08-07T12:09:16.792Z,31.92
2022-08-07T12:12:10.913Z,32.91
2022-08-07T12:14:55.391Z,30.30
2022-08-07T12:17:35.390Z,33.33
2022-08-07T12:20:18.650Z,30.36
2022-08-07T12:23:14.317Z,30.58
2022-08-07T12:26:22.450Z,31.78
2022-08-07T12:28:53.316Z,31.67
2022-08-07T12:32:01.441Z,29.22
2022-08-07T12:34:21.059Z,32.49
2022-08-07T12:36:54.370Z,28.42
2022-08-07T12:39:43.196Z,31.54
2022-08-07T12:42:27.231Z,28.81
2022-08-07T12:44:58.950Z,30.79
2022-08-07T12:47:37.927Z,30.38
2022-08-07T12:50:38.632Z,30.02
2022-08-07T12:53:18.032Z,29.92
2022-08-07T12:56:03.638Z,31.34
2022-08-07T12:58:39.510Z,29.80
2022-08-07T13:01:16.701Z,30.35
2022-08-07T13:04:31.655Z,27.97
2022-08-07T13:08:12.199Z,28.21
2022-08-07T13:10:44.025Z,31.02
2022-08-07T13:13:47.464Z,28.61
2022-08-07T13:16:28.234Z,28.41
2022-08-07T13:19:04.052Z,27.41
2022-08-07T13:21:50.359Z,28.99
2022-08-07T13:24:29.374Z,27.45
2022-08-07T13:27:05.683Z,25.83
2022-08-07T13:29:42.380Z,28.34
2022-08-07T13:32:32.275Z,27.36
2022-08-07T13:35:08.754Z,27.98
2022-08-07T13:37:55.416Z,28.10
2022-08-07T13:40:36.633Z,30.83
2022-08-07T13:43:15.404Z,29.09
2022-08-07T13:46:11.182Z,29.63
2022-08-07T13:48:40.707Z,28.82
2022-08-07T13:51:20.465Z,30.85
2022-08-07T13:54:02.035Z,27.90
2022-08-07T13:56:35.051Z,29.42
2022-08-07T13:59:12.337Z,27.69
2022-08-07T14:01:51.175Z,29.57
2022-08-07T14:04:38.027Z,28.59
2022-08-07T14:07:16.867Z,30.39
2022-08-07T14:10:17.822Z,28.21
2022-08-07T14:12:41.805Z,31.07
2022-08-07T14:15:19.045Z,30.12
2022-08-07T14:18:27.035Z,30.99
2022-08-07T14:20:54.680Z,29.68
2022-08-07T14:23:58.780Z,28.88
2022-08-07T14:26:28.264Z,29.69
2022-08-07T14:29:08.849Z,28.40
2022-08-07T14:31:56.627Z,28.99
2022-08-07T14:34:30.303Z,27.70
2022-08-07T14:40:15.884Z,27.89
2022-08-07T14:43:54.816Z,27.55
2022-08-07T14:45:46.346Z,27.10
2022-08-07T14:48:19.973Z,29.04
2022-08-07T14:50:51.172Z,27.40
2022-08-07T14:54:03.487Z,28.73
2022-08-07T14:56:14.058Z,29.55
2022-08-07T14:58:44.868Z,27.52
2022-08-07T15:04:05.964Z,28.61
2022-08-07T15:06:35.809Z,28.04
2022-08-07T15:09:57.515Z,28.04
2022-08-07T15:18:02.401Z,29.26
2022-08-07T15:20:54.709Z,27.39
2022-08-07T15:26:22.356Z,26.48
2022-08-07T15:28:59.446Z,28.39
2022-08-07T15:31:57.862Z,26.99
2022-08-07T15:34:26.274Z,26.39
2022-08-07T15:37:03.024Z,26.19
2022-08-07T15:39:57.869Z,26.58
2022-08-07T15:42:51.573Z,27.52
2022-08-07T15:45:55.481Z,26.86
2022-08-07T15:51:16.847Z,28.68
2022-08-07T15:53:53.300Z,27.96
2022-08-07T15:56:25.386Z,27.58
2022-08-07T15:58:59.235Z,27.46
2022-08-07T16:01:38.475Z,28.37
2022-08-07T16:04:14.767Z,29.39
2022-08-07T16:06:49.099Z,29.99
2022-08-07T16:09:23.236Z,28.24
2022-08-07T16:12:02.986Z,28.22
2022-08-07T16:14:59.073Z,27.47
2022-08-07T16:18:02.610Z,26.44
2022-08-07T16:20:56.804Z,26.82
2022-08-07T16:23:58.672Z,27.92
2022-08-07T16:26:59.272Z,28.19
2022-08-07T16:30:11.303Z,27.76
2022-08-07T16:32:46.312Z,27.53
2022-08-07T16:35:51.751Z,28.70
2022-08-07T16:38:57.299Z,27.56
2022-08-07T16:41:41.458Z,27.08
2022-08-07T16:45:15.501Z,28.47
2022-08-07T16:48:02.646Z,26.61
2022-08-07T16:51:20.484Z,28.88
2022-08-07T16:54:06.012Z,27.83
2022-08-07T16:56:53.517Z,27.39
2022-08-07T16:59:46.992Z,27.55
2022-08-07T17:02:51.149Z,28.59
2022-08-07T17:06:01.975Z,28.73
2022-08-07T17:09:08.848Z,28.86
2022-08-07T17:12:04.278Z,29.04
2022-08-07T17:14:33.488Z,28.89
2022-08-07T17:17:05.865Z,30.38
2022-08-07T17:20:01.979Z,28.46
2022-08-07T17:22:37.846Z,28.84
2022-08-07T17:25:15.106Z,28.31
2022-08-07T17:27:57.916Z,29.67
2022-08-07T17:30:29.488Z,30.04
2022-08-07T17:33:39.146Z,30.24
2022-08-07T17:36:03.731Z,30.07
2022-08-07T17:38:37.441Z,30.59
2022-08-07T17:42:03.755Z,32.81
2022-08-07T17:44:06.626Z,29.64
2022-08-07T17:46:44.087Z,29.60
2022-08-07T17:49:23.208Z,30.38
2022-08-07T17:52:01.281Z,29.06
2022-08-07T17:54:53.820Z,31.02
2022-08-07T17:57:56.077Z,30.88
2022-08-07T18:00:33.122Z,32.80
2022-08-07T18:03:18.246Z,32.47
2022-08-07T18:06:03.523Z,32.02
2022-08-07T18:09:01.139Z,33.41
2022-08-07T18:12:06.676Z,33.92
2022-08-07T18:14:28.911Z,33.54
2022-08-07T18:17:01.151Z,34.06
2022-08-07T18:21:11.871Z,34.48
2022-08-07T18:22:34.149Z,36.53
2022-08-07T18:25:19.041Z,36.98
2022-08-07T18:28:35.760Z,36.53
2022-08-07T18:31:08.513Z,36.06
2022-08-07T18:33:55.057Z,36.55
2022-08-07T18:36:33.752Z,36.71
2022-08-07T18:40:06.961Z,37.42
2022-08-07T18:42:13.382Z,38.90
2022-08-07T18:45:44.541Z,37.87
2022-08-07T18:48:00.945Z,38.48
2022-08-07T18:50:46.090Z,38.80
2022-08-07T18:53:39.231Z,38.90
2022-08-07T18:56:14.808Z,38.98
2022-08-07T18:58:56.882Z,38.63
2022-08-07T19:02:31.729Z,38.85
2022-08-07T19:04:54.911Z,39.13
2022-08-07T19:07:34.596Z,39.75
2022-08-07T19:10:12.075Z,39.83
2022-08-07T19:12:58.107Z,41.35
2022-08-07T19:16:04.215Z,40.71
2022-08-07T19:18:37.244Z,40.22
2022-08-07T19:21:47.692Z,40.61
2022-08-07T19:24:10.653Z,41.03
2022-08-07T19:27:16.901Z,40.97
2022-08-07T19:31:04.231Z,41.04
2022-08-07T19:32:42.322Z,40.97
2022-08-07T19:35:19.242Z,40.90
2022-08-07T19:37:56.886Z,40.85
2022-08-07T19:40:31.532Z,41.13
2022-08-07T19:43:03.018Z,40.54
2022-08-07T19:46:07.218Z,40.26
2022-08-07T19:48:42.982Z,41.13
2022-08-07T19:51:50.517Z,41.31
2022-08-07T19:54:31.664Z,40.72
2022-08-07T19:58:01.028Z,40.18
2022-08-07T19:59:53.396Z,40.57
2022-08-07T20:02:31.216Z,40.26
2022-08-07T20:05:07.663Z,40.51
2022-08-07T20:07:47.027Z,40.93
2022-08-07T20:10:36.245Z,40.48
2022-08-07T20:13:23.917Z,40.26
2022-08-07T20:15:58.202Z,39.85
2022-08-07T20:18:33.406Z,39.91
2022-08-07T20:21:14.483Z,40.08
2022-08-07T20:23:58.046Z,40.13
2022-08-07T20:26:38.777Z,40.13
2022-08-07T20:29:48.401Z,39.82
2022-08-07T20:32:11.581Z,40.10
2022-08-07T20:34:54.137Z,39.74
2022-08-07T20:37:30.010Z,39.58
2022-08-07T20:40:05.398Z,39.46
2022-08-07T20:42:56.398Z,39.77
2022-08-07T20:45:33.721Z,39.92
2022-08-07T20:48:25.936Z,39.95
2022-08-07T20:51:00.922Z,39.55
2022-08-07T20:54:03.534Z,39.68
2022-08-07T20:56:26.042Z,39.70
2022-08-07T20:58:58.692Z,39.74
2022-08-07T21:01:36.313Z,40.30
2022-08-07T21:04:21.750Z,39.70
2022-08-07T21:06:55.003Z,39.69
2022-08-07T21:09:29.933Z,39.57
2022-08-07T21:12:28.870Z,39.87
2022-08-07T21:14:58.179Z,39.81
2022-08-07T21:18:06.117Z,39.68
2022-08-07T21:20:29.820Z,39.61
2022-08-07T21:23:08.072Z,40.03
2022-08-07T21:25:56.129Z,39.90
2022-08-07T21:28:48.888Z,39.94
2022-08-07T21:31:49.901Z,40.26
2022-08-07T21:34:26.667Z,39.95
2022-08-07T21:37:03.638Z,40.58
2022-08-07T21:39:45.378Z,40.33
2022-08-07T21:42:42.857Z,40.45
2022-08-07T21:45:24.382Z,40.60
2022-08-07T21:48:27.671Z,40.60
2022-08-07T21:51:03.276Z,40.71
2022-08-07T21:53:37.038Z,40.40
2022-08-07T21:56:36.062Z,40.70
2022-08-07T21:59:09.270Z,40.36
2022-08-07T22:02:07.462Z,40.46
2022-08-07T22:04:38.024Z,40.79
2022-08-07T22:07:13.129Z,40.53
2022-08-07T22:09:53.641Z,40.64
2022-08-07T22:12:31.772Z,40.79
2022-08-07T22:16:42.409Z,40.83
2022-08-07T22:17:58.138Z,40.83
2022-08-07T22:20:35.435Z,40.88
2022-08-07T22:23:16.213Z,41.20
2022-08-07T22:25:52.271Z,41.40
2022-08-07T22:28:31.254Z,41.27
2022-08-07T22:31:45.537Z,41.34
2022-08-07T22:34:12.880Z,41.32
2022-08-07T22:36:48.692Z,41.40
2022-08-07T22:39:31.576Z,41.39
2022-08-07T22:42:53.710Z,41.28
2022-08-07T22:46:40.499Z,41.53
2022-08-07T22:48:31.712Z,41.67
2022-08-07T22:51:16.003Z,42.27
2022-08-07T22:54:06.951Z,41.90
2022-08-07T22:56:48.538Z,41.78
2022-08-07T22:59:50.829Z,42.07
2022-08-07T23:02:48.188Z,42.21
2022-08-07T23:06:09.904Z,42.38
2022-08-07T23:08:58.545Z,42.50
2022-08-07T23:11:59.025Z,42.47
2022-08-07T23:14:48.409Z,42.79
2022-08-07T23:17:41.717Z,42.79
2022-08-07T23:20:40.719Z,42.61
2022-08-07T23:24:05.112Z,42.89
2022-08-07T23:26:50.608Z,43.10
2022-08-07T23:30:39.407Z,43.28
2022-08-07T23:34:33.726Z,43.43
2022-08-07T23:36:17.074Z,43.50
2022-08-07T23:39:00.196Z,43.44
2022-08-07T23:42:04.050Z,43.69
2022-08-07T23:44:52.234Z,43.56
2022-08-07T23:47:29.921Z,43.88
2022-08-07T23:50:36.799Z,44.11
2022-08-07T23:53:22.846Z,44.00
2022-08-07T23:56:21.160Z,44.06
2022-08-07T23:59:00.113Z,44.40
